createdAt,value
2022-08-25T00:01:10.715Z,97882.50
2022-08-25T00:03:39.579Z,97879.81
2022-08-25T00:06:10.449Z,97884.72
2022-08-25T00:08:39.192Z,97879.09
2022-08-25T00:11:09.577Z,97885.34
2022-08-25T00:13:36.756Z,97891.88
2022-08-25T00:16:03.917Z,97884.94
2022-08-25T00:18:31.103Z,97882.72
2022-08-25T00:20:58.236Z,97870.78
2022-08-25T00:23:25.403Z,97868.06
2022-08-25T00:25:54.059Z,97866.66
2022-08-25T00:28:21.402Z,97867.66
2022-08-25T00:30:48.786Z,97868.44
2022-08-25T00:33:16.027Z,97863.50
2022-08-25T00:35:44.013Z,97858.59
2022-08-25T00:38:11.715Z,97854.56
2022-08-25T00:40:40.423Z,97853.28
2022-08-25T00:43:09.373Z,97849.44
2022-08-25T00:45:37.038Z,97856.19
2022-08-25T00:48:04.962Z,97857.09
2022-08-25T00:50:34.579Z,97853.38
2022-08-25T00:53:04.735Z,97848.16
2022-08-25T00:55:36.997Z,97853.59
2022-08-25T00:58:07.828Z,97855.81
2022-08-25T01:00:40.946Z,97857.72
2022-08-25T01:03:11.136Z,97857.00
2022-08-25T01:05:39.580Z,97849.47
2022-08-25T01:08:09.130Z,97851.38
2022-08-25T01:10:40.837Z,97841.53
2022-08-25T01:13:16.555Z,97847.66
2022-08-25T01:15:46.789Z,97858.38
2022-08-25T01:18:14.882Z,97852.16
2022-08-25T01:20:42.623Z,97856.00
2022-08-25T01:23:11.104Z,97856.88
2022-08-25T01:25:48.475Z,97850.56
2022-08-25T01:28:16.911Z,97857.38
2022-08-25T01:30:44.152Z,97857.09
2022-08-25T01:33:12.378Z,97854.69
2022-08-25T01:35:40.667Z,97854.88
2022-08-25T01:38:08.849Z,97849.75
2022-08-25T01:40:39.370Z,97850.06
2022-08-25T01:43:12.370Z,97849.56
2022-08-25T01:45:41.405Z,97845.53
2022-08-25T01:48:09.229Z,97847.25
2022-08-25T01:50:36.918Z,97849.47
2022-08-25T01:53:08.565Z,97842.13
2022-08-25T01:55:37.585Z,97846.47
2022-08-25T01:58:04.816Z,97841.84
2022-08-25T02:00:32.564Z,97838.81
2022-08-25T02:02:59.782Z,97840.75
2022-08-25T02:05:28.063Z,97834.00
2022-08-25T02:07:55.343Z,97839.63
2022-08-25T02:10:22.562Z,97843.13
2022-08-25T02:12:51.844Z,97847.38
2022-08-25T02:15:21.869Z,97845.75
2022-08-25T02:17:49.038Z,97837.09
2022-08-25T02:20:16.204Z,97831.38
2022-08-25T02:22:43.484Z,97834.28
2022-08-25T02:25:20.781Z,97844.16
2022-08-25T02:27:47.924Z,97837.91
2022-08-25T02:30:17.847Z,97836.59
2022-08-25T02:32:45.008Z,97833.28
2022-08-25T02:35:12.622Z,97834.47
2022-08-25T02:37:39.778Z,97838.91
2022-08-25T02:40:08.275Z,97832.50
2022-08-25T02:42:35.538Z,97829.78
2022-08-25T02:45:04.206Z,97829.47
2022-08-25T02:47:32.687Z,97818.53
2022-08-25T02:49:59.847Z,97821.75
2022-08-25T02:52:27.082Z,97817.91
2022-08-25T02:54:54.215Z,97820.63
2022-08-25T02:57:21.419Z,97812.97
2022-08-25T02:59:48.591Z,97816.81
2022-08-25T03:02:15.886Z,97814.91
2022-08-25T03:04:44.501Z,97802.94
2022-08-25T03:07:11.749Z,97809.97
2022-08-25T03:09:39.736Z,97811.38
2022-08-25T03:12:07.247Z,97807.84
2022-08-25T03:14:34.373Z,97808.19
2022-08-25T03:17:01.594Z,97810.06
2022-08-25T03:19:29.920Z,97803.53
2022-08-25T03:21:58.719Z,97797.13
2022-08-25T03:24:26.909Z,97798.22
2022-08-25T03:26:54.419Z,97796.19
2022-08-25T03:29:22.417Z,97797.50
2022-08-25T03:31:49.930Z,97791.78
2022-08-25T03:34:18.974Z,97797.41
2022-08-25T03:36:48.961Z,97794.78
2022-08-25T03:39:19.668Z,97787.38
2022-08-25T03:41:46.882Z,97798.84
2022-08-25T03:44:14.253Z,97797.31
2022-08-25T03:46:43.965Z,97794.22
2022-08-25T03:49:14.412Z,97792.19
2022-08-25T03:51:44.675Z,97793.28
2022-08-25T03:54:11.787Z,97793.28
2022-08-25T03:56:40.323Z,97793.63
2022-08-25T03:59:08.691Z,97801.63
2022-08-25T04:01:36.363Z,97804.25
2022-08-25T04:04:04.437Z,97806.16
2022-08-25T04:06:31.658Z,97804.88
2022-08-25T04:08:58.889Z,97801.16
2022-08-25T04:11:27.722Z,97795.63
2022-08-25T04:13:58.955Z,97787.69
2022-08-25T04:16:29.164Z,97800.97
2022-08-25T04:18:58.024Z,97790.81
2022-08-25T04:21:25.939Z,97795.53
2022-08-25T04:23:54.947Z,97788.00
2022-08-25T04:26:23.986Z,97787.19
2022-08-25T04:28:51.481Z,97786.41
2022-08-25T04:31:21.049Z,97787.41
2022-08-25T04:33:48.468Z,97785.19
2022-08-25T04:36:17.413Z,97781.38
2022-08-25T04:38:46.166Z,97779.16
2022-08-25T04:41:15.345Z,97779.16
2022-08-25T04:43:43.738Z,97775.66
2022-08-25T04:46:13.392Z,97774.56
2022-08-25T04:48:49.127Z,97772.34
2022-08-25T04:51:19.064Z,97779.34
2022-08-25T04:53:46.839Z,97776.94
2022-08-25T04:56:15.587Z,97785.28
2022-08-25T04:58:42.930Z,97785.91
2022-08-25T05:01:12.350Z,97786.19
2022-08-25T05:03:39.591Z,97783.28
2022-08-25T05:06:10.917Z,97779.97
2022-08-25T05:08:41.172Z,97791.91
2022-08-25T05:11:09.908Z,97788.69
2022-08-25T05:13:37.334Z,97785.41
2022-08-25T05:16:05.094Z,97792.13
2022-08-25T05:18:36.978Z,97790.00
2022-08-25T05:21:06.529Z,97782.06
2022-08-25T05:23:35.239Z,97790.09
2022-08-25T05:26:04.563Z,97790.41
2022-08-25T05:28:32.273Z,97789.81
2022-08-25T05:31:00.843Z,97789.81
2022-08-25T05:33:28.791Z,97788.19
2022-08-25T05:35:59.643Z,97790.41
2022-08-25T05:38:26.855Z,97785.19
2022-08-25T05:40:57.644Z,97781.34
2022-08-25T05:43:25.286Z,97777.06
2022-08-25T05:45:54.022Z,97784.69
2022-08-25T05:48:21.219Z,97774.72
2022-08-25T05:50:51.871Z,97780.84
2022-08-25T05:53:19.223Z,97781.97
2022-08-25T05:55:46.542Z,97776.84
2022-08-25T05:58:15.104Z,97773.03
2022-08-25T06:00:44.395Z,97777.84
2022-08-25T06:03:11.919Z,97779.13
2022-08-25T06:05:39.542Z,97779.13
2022-08-25T06:08:07.303Z,97774.53
2022-08-25T06:10:35.493Z,97774.75
2022-08-25T06:13:03.358Z,97778.25
2022-08-25T06:15:35.596Z,97772.91
2022-08-25T06:18:03.481Z,97771.22
2022-08-25T06:20:31.408Z,97768.19
2022-08-25T06:22:59.042Z,97772.31
2022-08-25T06:25:27.229Z,97760.69
2022-08-25T06:27:54.948Z,97760.34
2022-08-25T06:30:25.738Z,97769.91
2022-08-25T06:32:57.046Z,97770.50
2022-08-25T06:35:24.096Z,97758.56
2022-08-25T06:37:51.239Z,97764.59
2022-08-25T06:40:18.627Z,97760.47
2022-08-25T06:42:48.369Z,97765.97
2022-08-25T06:45:15.650Z,97766.13
2022-08-25T06:47:42.819Z,97768.28
2022-08-25T06:50:14.058Z,97763.78
2022-08-25T06:52:41.189Z,97762.38
2022-08-25T06:55:09.083Z,97754.94
2022-08-25T06:57:36.226Z,97767.91
2022-08-25T07:00:05.523Z,97761.34
2022-08-25T07:02:32.779Z,97765.97
2022-08-25T07:05:02.603Z,97762.47
2022-08-25T07:07:43.252Z,97766.69
2022-08-25T07:10:11.579Z,97766.78
2022-08-25T07:12:39.087Z,97766.19
2022-08-25T07:15:21.942Z,97768.59
2022-08-25T07:17:49.520Z,97756.25
2022-08-25T07:20:19.382Z,97760.25
2022-08-25T07:22:48.231Z,97761.69
2022-08-25T07:25:15.438Z,97756.84
2022-08-25T07:27:45.567Z,97758.47
2022-08-25T07:30:12.900Z,97766.13
2022-08-25T07:32:41.963Z,97752.72
2022-08-25T07:35:11.124Z,97763.97
2022-08-25T07:37:48.777Z,97761.69
2022-08-25T07:40:22.327Z,97761.06
2022-08-25T07:42:50.737Z,97753.13
2022-08-25T07:45:20.620Z,97752.03
2022-08-25T07:47:51.586Z,97741.97
2022-08-25T07:50:19.298Z,97754.00
2022-08-25T07:52:52.172Z,97745.97
2022-08-25T07:55:24.418Z,97747.91
2022-08-25T07:57:54.027Z,97741.34
2022-08-25T08:00:24.388Z,97735.91
2022-08-25T08:02:51.898Z,97738.56
2022-08-25T08:05:20.716Z,97741.19
2022-08-25T08:07:51.160Z,97741.78
2022-08-25T08:10:47.921Z,97733.84
2022-08-25T08:13:09.403Z,97748.72
2022-08-25T08:15:37.519Z,97739.78
2022-08-25T08:18:04.739Z,97747.13
2022-08-25T08:20:42.636Z,97747.63
2022-08-25T08:23:10.601Z,97753.75
2022-08-25T08:25:37.926Z,97746.41
2022-08-25T08:28:07.264Z,97747.41
2022-08-25T08:30:36.079Z,97748.19
2022-08-25T08:33:10.098Z,97747.09
2022-08-25T08:35:38.926Z,97741.34
2022-08-25T08:38:13.135Z,97747.91
2022-08-25T08:40:48.180Z,97752.72
2022-08-25T08:43:21.228Z,97750.59
2022-08-25T08:45:53.876Z,97748.19
2022-08-25T08:48:43.103Z,97733.22
2022-08-25T08:51:20.409Z,97735.13
2022-08-25T08:53:55.657Z,97729.22
2022-08-25T08:56:30.821Z,97735.13
2022-08-25T08:59:06.095Z,97730.81
2022-08-25T09:01:46.050Z,97733.84
2022-08-25T09:04:20.925Z,97739.84
2022-08-25T09:06:51.974Z,97736.34
2022-08-25T09:09:26.494Z,97732.63
2022-08-25T09:12:02.491Z,97729.09
2022-08-25T09:14:45.458Z,97720.66
2022-08-25T09:17:21.623Z,97724.88
2022-08-25T09:20:18.162Z,97717.13
2022-08-25T09:22:59.168Z,97713.91
2022-08-25T09:25:52.941Z,97718.03
2022-08-25T09:28:30.187Z,97710.50
2022-08-25T09:31:01.046Z,97707.78
2022-08-25T09:33:33.675Z,97706.25
2022-08-25T09:36:06.281Z,97708.88
2022-08-25T09:38:36.674Z,97708.69
2022-08-25T09:41:04.368Z,97700.84
2022-08-25T09:43:34.742Z,97707.47
2022-08-25T09:46:08.873Z,97700.75
2022-08-25T09:48:45.301Z,97702.19
2022-08-25T09:51:20.300Z,97708.31
2022-08-25T09:53:54.410Z,97700.66
2022-08-25T09:56:22.958Z,97699.28
2022-08-25T09:58:51.042Z,97697.44
2022-08-25T10:01:20.701Z,97692.00
2022-08-25T10:04:02.349Z,97696.00
2022-08-25T10:06:34.914Z,97689.91
2022-08-25T10:09:05.857Z,97681.75
2022-08-25T10:11:39.852Z,97680.84
2022-08-25T10:14:15.026Z,97675.41
2022-08-25T10:16:42.526Z,97674.03
2022-08-25T10:19:25.350Z,97677.63
2022-08-25T10:22:07.157Z,97672.53
2022-08-25T10:24:35.819Z,97673.63
2022-08-25T10:27:15.951Z,97665.50
2022-08-25T10:30:15.816Z,97660.06
2022-08-25T10:32:57.903Z,97651.94
2022-08-25T10:35:30.978Z,97654.34
2022-08-25T10:38:07.892Z,97657.34
2022-08-25T10:40:46.129Z,97654.75
2022-08-25T10:43:23.862Z,97645.31
2022-08-25T10:45:58.428Z,97643.69
2022-08-25T10:48:40.098Z,97643.41
2022-08-25T10:51:31.549Z,97629.84
2022-08-25T10:54:07.786Z,97627.31
2022-08-25T10:56:40.842Z,97623.81
2022-08-25T10:59:27.509Z,97632.13
2022-08-25T11:02:25.170Z,97627.41
2022-08-25T11:04:58.126Z,97627.91
2022-08-25T11:07:31.834Z,97635.13
2022-08-25T11:10:05.303Z,97632.72
2022-08-25T11:12:35.758Z,97629.09
2022-08-25T11:15:08.888Z,97630.19
2022-08-25T11:17:42.820Z,97627.16
2022-08-25T11:20:26.493Z,97628.75
2022-08-25T11:23:08.794Z,97634.03
2022-08-25T11:25:43.595Z,97609.72
2022-08-25T11:28:16.156Z,97626.38
2022-08-25T11:30:43.378Z,97627.59
2022-08-25T11:33:13.699Z,97627.59
2022-08-25T11:35:45.556Z,97624.56
2022-08-25T11:38:29.030Z,97622.69
2022-08-25T11:41:11.140Z,97623.78
2022-08-25T11:43:55.625Z,97622.34
2022-08-25T11:46:47.764Z,97619.34
2022-08-25T11:49:35.744Z,97616.00
2022-08-25T11:52:04.786Z,97615.56
2022-08-25T11:54:38.662Z,97619.25
2022-08-25T11:57:18.074Z,97618.66
2022-08-25T12:00:09.414Z,97617.72
2022-08-25T12:02:40.098Z,97620.72
2022-08-25T12:05:09.882Z,97608.28
2022-08-25T12:08:00.369Z,97602.84
2022-08-25T12:10:55.164Z,97605.56
2022-08-25T12:13:45.314Z,97600.94
2022-08-25T12:16:42.394Z,97599.53
2022-08-25T12:19:38.603Z,97595.66
2022-08-25T12:22:41.234Z,97584.91
2022-08-25T12:25:20.971Z,97585.53
2022-08-25T12:28:04.604Z,97588.44
2022-08-25T12:30:45.705Z,97586.00
2022-08-25T12:33:21.310Z,97590.03
2022-08-25T12:35:57.030Z,97588.63
2022-08-25T12:38:33.088Z,97578.84
2022-08-25T12:41:07.076Z,97588.00
2022-08-25T12:43:38.568Z,97587.84
2022-08-25T12:46:42.110Z,97588.53
2022-08-25T12:49:28.457Z,97582.00
2022-08-25T12:52:04.787Z,97581.66
2022-08-25T12:54:43.892Z,97575.44
2022-08-25T12:57:29.439Z,97568.09
2022-08-25T13:00:02.017Z,97573.50
2022-08-25T13:03:02.771Z,97571.44
2022-08-25T13:06:00.008Z,97571.94
2022-08-25T13:08:46.674Z,97571.44
2022-08-25T13:11:20.281Z,97571.56
2022-08-25T13:13:56.460Z,97576.00
2022-08-25T13:16:29.663Z,97566.28
2022-08-25T13:18:58.541Z,97562.75
2022-08-25T13:21:30.480Z,97558.94
2022-08-25T13:24:04.583Z,97558.00
2022-08-25T13:26:34.827Z,97549.06
2022-08-25T13:29:13.269Z,97550.03
2022-08-25T13:31:55.713Z,97538.75
2022-08-25T13:34:34.481Z,97544.66
2022-08-25T13:37:07.340Z,97542.09
2022-08-25T13:42:24.499Z,97535.44
2022-08-25T13:44:56.061Z,97532.22
2022-08-25T13:47:43.320Z,97527.28
2022-08-25T13:50:18.316Z,97524.56
2022-08-25T13:52:51.173Z,97527.78
2022-08-25T13:55:23.042Z,97523.94
2022-08-25T13:57:57.168Z,97531.59
2022-08-25T14:00:32.431Z,97525.38
2022-08-25T14:03:08.678Z,97525.66
2022-08-25T14:05:42.278Z,97522.47
2022-08-25T14:08:31.373Z,97517.66
2022-08-25T14:11:06.877Z,97514.63
2022-08-25T14:13:43.754Z,97504.91
2022-08-25T14:16:14.755Z,97513.53
2022-08-25T14:18:50.975Z,97516.09
2022-08-25T14:21:20.267Z,97520.81
2022-08-25T14:23:47.507Z,97503.06
2022-08-25T14:26:14.642Z,97514.09
2022-08-25T14:28:41.833Z,97516.16
2022-08-25T14:31:15.344Z,97521.63
2022-08-25T14:33:54.716Z,97510.78
2022-08-25T14:36:21.907Z,97512.03
2022-08-25T14:38:54.956Z,97517.78
2022-08-25T14:41:23.201Z,97518.75
2022-08-25T14:43:50.508Z,97530.41
2022-08-25T14:46:21.123Z,97520.34
2022-08-25T14:48:53.422Z,97518.25
2022-08-25T14:51:23.766Z,97517.31
2022-08-25T14:53:54.137Z,97517.13
2022-08-25T14:56:21.361Z,97525.59
2022-08-25T14:58:51.435Z,97518.09
2022-08-25T15:01:29.168Z,97509.94
2022-08-25T15:04:03.509Z,97522.38
2022-08-25T15:06:31.031Z,97517.09
2022-08-25T15:08:58.120Z,97514.69
2022-08-25T15:11:25.579Z,97503.00
2022-08-25T15:13:53.656Z,97516.75
2022-08-25T15:16:34.024Z,97512.31
2022-08-25T15:19:06.652Z,97512.00
2022-08-25T15:21:34.792Z,97506.56
2022-08-25T15:24:03.422Z,97511.53
2022-08-25T15:26:30.761Z,97508.00
2022-08-25T15:28:59.513Z,97504.50
2022-08-25T15:31:26.742Z,97503.66
2022-08-25T15:33:54.022Z,97503.28
2022-08-25T15:36:25.698Z,97496.88
2022-08-25T15:38:53.085Z,97503.75
2022-08-25T15:41:20.613Z,97497.03
2022-08-25T15:43:51.648Z,97499.91
2022-08-25T15:46:21.527Z,97492.69
2022-08-25T15:48:48.728Z,97496.53
2022-08-25T15:51:17.249Z,97495.38
2022-08-25T15:53:45.879Z,97493.63
2022-08-25T15:56:13.801Z,97485.19
2022-08-25T15:58:49.796Z,97486.16
2022-08-25T16:01:19.647Z,97485.19
2022-08-25T16:03:47.044Z,97487.13
2022-08-25T16:06:14.257Z,97481.38
2022-08-25T16:08:41.549Z,97481.38
2022-08-25T16:11:18.521Z,97482.84
2022-08-25T16:13:46.125Z,97477.22
2022-08-25T16:16:13.565Z,97475.16
2022-08-25T16:18:40.822Z,97476.88
2022-08-25T16:21:12.526Z,97469.03
2022-08-25T16:23:40.627Z,97469.81
2022-08-25T16:26:09.881Z,97466.78
2022-08-25T16:28:39.380Z,97469.19
2022-08-25T16:31:14.018Z,97465.81
2022-08-25T16:36:16.233Z,97466.09
2022-08-25T16:38:48.976Z,97463.66
2022-08-25T16:41:19.575Z,97459.50
2022-08-25T16:43:49.862Z,97458.28
2022-08-25T16:46:19.169Z,97465.47
2022-08-25T16:48:47.151Z,97452.38
2022-08-25T16:51:16.804Z,97453.38
2022-08-25T16:53:47.334Z,97457.81
2022-08-25T16:56:15.984Z,97458.47
2022-08-25T16:58:43.665Z,97448.28
2022-08-25T17:01:14.340Z,97451.16
2022-08-25T17:03:43.905Z,97440.31
2022-08-25T17:06:11.828Z,97445.25
2022-08-25T17:08:39.782Z,97448.44
2022-08-25T17:11:09.399Z,97442.84
2022-08-25T17:13:38.422Z,97443.16
2022-08-25T17:16:06.503Z,97444.78
2022-08-25T17:18:36.015Z,97442.06
2022-08-25T17:21:06.466Z,97436.78
2022-08-25T17:23:35.256Z,97439.97
2022-08-25T17:26:03.825Z,97445.56
2022-08-25T17:28:33.070Z,97444.28
2022-08-25T17:31:01.137Z,97450.34
2022-08-25T17:33:28.380Z,97451.78
2022-08-25T17:35:57.729Z,97454.84
2022-08-25T17:38:26.777Z,97456.91
2022-08-25T17:40:57.909Z,97459.13
2022-08-25T17:43:26.402Z,97458.81
2022-08-25T17:45:55.940Z,97453.22
2022-08-25T17:48:24.866Z,97448.16
2022-08-25T17:50:54.019Z,97460.44
2022-08-25T17:53:22.543Z,97458.34
2022-08-25T17:55:57.343Z,97459.13
2022-08-25T17:58:25.571Z,97455.94
2022-08-25T18:00:55.053Z,97453.22
2022-08-25T18:03:22.379Z,97449.25
2022-08-25T18:05:49.581Z,97451.16
2022-08-25T18:08:16.990Z,97451.91
2022-08-25T18:10:45.758Z,97451.13
2022-08-25T18:13:13.017Z,97455.75
2022-08-25T18:15:42.726Z,97451.84
2022-08-25T18:18:12.574Z,97459.31
2022-08-25T18:20:40.808Z,97458.84
2022-08-25T18:23:10.910Z,97455.34
2022-08-25T18:25:41.722Z,97461.53
2022-08-25T18:28:10.587Z,97466.00
2022-08-25T18:30:38.260Z,97463.31
2022-08-25T18:33:05.809Z,97456.19
2022-08-25T18:35:33.029Z,97457.31
2022-08-25T18:38:00.267Z,97463.41
2022-08-25T18:40:28.489Z,97461.66
2022-08-25T18:42:57.895Z,97468.34
2022-08-25T18:45:28.549Z,97473.19
2022-08-25T18:47:55.835Z,97476.84
2022-08-25T18:50:24.668Z,97471.75
2022-08-25T18:52:51.949Z,97473.66
2022-08-25T18:55:23.119Z,97468.53
2022-08-25T18:57:51.294Z,97469.34
2022-08-25T19:00:22.626Z,97467.44
2022-08-25T19:02:54.165Z,97471.56
2022-08-25T19:05:25.823Z,97474.28
2022-08-25T19:07:53.657Z,97467.25
2022-08-25T19:10:21.535Z,97474.28
2022-08-25T19:12:52.199Z,97479.69
2022-08-25T19:15:24.762Z,97481.16
2022-08-25T19:17:54.379Z,97480.66
2022-08-25T19:20:23.590Z,97481.97
2022-08-25T19:22:51.288Z,97482.59
2022-08-25T19:25:19.881Z,97483.88
2022-08-25T19:27:47.697Z,97478.44
2022-08-25T19:30:18.095Z,97482.16
2022-08-25T19:32:47.184Z,97478.97
2022-08-25T19:35:19.895Z,97475.41
2022-08-25T19:37:47.366Z,97481.81
2022-08-25T19:40:14.999Z,97475.59
2022-08-25T19:42:45.750Z,97472.88
2022-08-25T19:45:14.183Z,97480.38
2022-08-25T19:47:41.413Z,97481.66
2022-08-25T19:50:09.616Z,97475.91
2022-08-25T19:52:38.265Z,97478.13
2022-08-25T19:55:06.642Z,97478.44
2022-08-25T19:57:42.415Z,97475.41
2022-08-25T20:00:15.481Z,97475.13
2022-08-25T20:02:43.328Z,97467.44
2022-08-25T20:05:11.154Z,97471.06
2022-08-25T20:07:40.744Z,97468.34
2022-08-25T20:10:13.962Z,97473.00
2022-08-25T20:12:41.995Z,97473.31
2022-08-25T20:15:09.221Z,97477.81
2022-08-25T20:17:36.392Z,97485.13
2022-08-25T20:20:07.150Z,97479.41
2022-08-25T20:22:36.362Z,97483.72
2022-08-25T20:25:13.102Z,97483.88
2022-08-25T20:27:43.561Z,97483.75
2022-08-25T20:30:14.375Z,97491.44
2022-08-25T20:32:44.207Z,97486.50
2022-08-25T20:35:13.410Z,97480.91
2022-08-25T20:37:41.582Z,97484.59
2022-08-25T20:40:13.487Z,97484.09
2022-08-25T20:42:40.799Z,97486.03
2022-08-25T20:45:12.037Z,97490.50
2022-08-25T20:47:39.383Z,97492.41
2022-08-25T20:50:08.928Z,97504.56
2022-08-25T20:52:36.883Z,97509.50
2022-08-25T20:55:08.212Z,97504.38
2022-08-25T20:57:36.718Z,97504.66
2022-08-25T21:00:06.300Z,97506.59
2022-08-25T21:02:34.440Z,97507.56
2022-08-25T21:05:03.006Z,97502.75
2022-08-25T21:07:30.370Z,97506.44
2022-08-25T21:09:57.994Z,97503.53
2022-08-25T21:12:25.165Z,97510.56
2022-08-25T21:14:55.395Z,97506.44
2022-08-25T21:17:22.614Z,97501.47
2022-08-25T21:19:49.726Z,97500.38
2022-08-25T21:22:17.019Z,97500.88
2022-08-25T21:24:44.170Z,97502.78
2022-08-25T21:27:11.823Z,97502.78
2022-08-25T21:29:39.014Z,97497.66
2022-08-25T21:32:13.316Z,97501.47
2022-08-25T21:34:40.466Z,97492.53
2022-08-25T21:37:07.598Z,97501.19
2022-08-25T21:39:35.017Z,97497.97
2022-08-25T21:42:04.048Z,97495.25
2022-08-25T21:44:31.210Z,97491.41
2022-08-25T21:46:58.351Z,97501.47
2022-08-25T21:49:26.898Z,97489.81
2022-08-25T21:52:02.411Z,97493.00
2022-08-25T21:54:31.615Z,97486.75
2022-08-25T21:57:01.448Z,97492.84
2022-08-25T21:59:31.038Z,97478.50
2022-08-25T22:02:00.664Z,97492.25
2022-08-25T22:04:30.676Z,97485.69
2022-08-25T22:06:59.265Z,97490.00
2022-08-25T22:09:28.403Z,97487.00
2022-08-25T22:11:56.140Z,97487.47
2022-08-25T22:14:26.125Z,97495.94
2022-08-25T22:16:53.575Z,97492.72
2022-08-25T22:19:22.792Z,97491.94
2022-08-25T22:21:52.786Z,97490.00
2022-08-25T22:24:20.175Z,97485.69
2022-08-25T22:26:48.609Z,97483.31
2022-08-25T22:29:24.787Z,97483.44
2022-08-25T22:31:53.414Z,97485.53
2022-08-25T22:34:30.508Z,97491.56
2022-08-25T22:37:01.177Z,97483.44
2022-08-25T22:39:29.365Z,97482.94
2022-08-25T22:41:56.503Z,97483.63
2022-08-25T22:44:23.712Z,97482.31
2022-08-25T22:46:50.914Z,97473.84
2022-08-25T22:49:18.074Z,97483.63
2022-08-25T22:51:46.982Z,97479.59
2022-08-25T22:54:16.508Z,97477.53
2022-08-25T22:56:43.679Z,97480.75
2022-08-25T22:59:12.556Z,97480.75
2022-08-25T23:01:41.018Z,97471.00
2022-08-25T23:04:08.329Z,97472.59
2022-08-25T23:06:35.584Z,97469.41
2022-08-25T23:09:05.115Z,97466.69
2022-08-25T23:11:33.948Z,97474.03
2022-08-25T23:14:01.085Z,97467.03
2022-08-25T23:16:29.129Z,97461.25
2022-08-25T23:18:56.325Z,97459.97
2022-08-25T23:21:24.317Z,97459.19
2022-08-25T23:23:52.143Z,97451.97
2022-08-25T23:26:19.648Z,97452.63
2022-08-25T23:28:48.957Z,97453.09
2022-08-25T23:31:17.282Z,97459.00
2022-08-25T23:33:44.646Z,97448.78
2022-08-25T23:36:14.393Z,97455.03
2022-08-25T23:38:44.802Z,97449.75
2022-08-25T23:41:21.730Z,97456.31
2022-08-25T23:43:52.230Z,97453.59
2022-08-25T23:46:24.858Z,97456.78
2022-08-25T23:48:55.091Z,97442.91
2022-08-25T23:51:24.302Z,97442.13
2022-08-25T23:53:51.841Z,97438.91
2022-08-25T23:56:18.964Z,97437.78
2022-08-25T23:58:46.156Z,97440.50
